sensor_id;sensor_type;location;lat;lon;timestamp;pressure;altitude;pressure_sealevel;temperature;humidity
10470;BME280;5282;47.052;15.458;2023-08-06T00:00:05;96468.03;;;15.57;100.00
10470;BME280;5282;47.052;15.458;2023-08-06T00:02:33;96454.28;;;15.70;100.00
10470;BME280;5282;47.052;15.458;2023-08-06T00:05:00;96453.38;;;15.77;100.00
10470;BME280;5282;47.052;15.458;2023-08-06T00:07:27;96448.78;;;15.77;100.00
10470;BME280;5282;47.052;15.458;2023-08-06T00:09:54;96447.97;;;15.58;100.00
10470;BME280;5282;47.052;15.458;2023-08-06T00:12:21;96457.00;;;15.52;100.00
10470;BME280;5282;47.052;15.458;2023-08-06T00:14:50;96455.34;;;15.51;100.00
10470;BME280;5282;47.052;15.458;2023-08-06T00:17:17;96463.53;;;15.25;100.00
10470;BME280;5282;47.052;15.458;2023-08-06T00:19:45;96470.44;;;15.21;100.00
10470;BME280;5282;47.052;15.458;2023-08-06T00:22:12;96476.78;;;15.15;100.00
10470;BME280;5282;47.052;15.458;2023-08-06T00:24:39;96480.59;;;15.07;100.00
10470;BME280;5282;47.052;15.458;2023-08-06T00:27:06;96479.44;;;15.22;100.00
10470;BME280;5282;47.052;15.458;2023-08-06T00:29:32;96479.63;;;15.46;100.00
10470;BME280;5282;47.052;15.458;2023-08-06T00:31:59;96474.34;;;15.51;100.00
10470;BME280;5282;47.052;15.458;2023-08-06T00:34:26;96468.53;;;15.47;100.00
10470;BME280;5282;47.052;15.458;2023-08-06T00:36:56;96462.19;;;15.53;100.00
10470;BME280;5282;47.052;15.458;2023-08-06T00:39:23;96468.00;;;15.38;100.00
10470;BME280;5282;47.052;15.458;2023-08-06T00:41:50;96466.94;;;15.39;100.00
10470;BME280;5282;47.052;15.458;2023-08-06T00:44:17;96467.19;;;15.38;100.00
10470;BME280;5282;47.052;15.458;2023-08-06T00:46:44;96465.81;;;15.47;100.00
10470;BME280;5282;47.052;15.458;2023-08-06T00:49:11;96465.34;;;15.32;100.00
10470;BME280;5282;47.052;15.458;2023-08-06T00:51:38;96464.41;;;15.19;100.00
10470;BME280;5282;47.052;15.458;2023-08-06T00:54:06;96470.38;;;15.09;100.00
10470;BME280;5282;47.052;15.458;2023-08-06T00:56:34;96459.53;;;15.09;100.00
10470;BME280;5282;47.052;15.458;2023-08-06T00:59:02;96469.09;;;15.12;100.00
10470;BME280;5282;47.052;15.458;2023-08-06T01:01:29;96463.72;;;15.05;100.00
10470;BME280;5282;47.052;15.458;2023-08-06T01:03:57;96459.53;;;15.09;100.00
10470;BME280;5282;47.052;15.458;2023-08-06T01:06:59;96458.47;;;15.10;100.00
10470;BME280;5282;47.052;15.458;2023-08-06T01:09:42;96462.56;;;15.20;100.00
10470;BME280;5282;47.052;15.458;2023-08-06T01:12:20;96459.66;;;15.15;100.00
10470;BME280;5282;47.052;15.458;2023-08-06T01:14:55;96456.97;;;15.15;100.00
10470;BME280;5282;47.052;15.458;2023-08-06T01:17:24;96449.88;;;15.14;100.00
10470;BME280;5282;47.052;15.458;2023-08-06T01:19:53;96440.13;;;15.13;100.00
10470;BME280;5282;47.052;15.458;2023-08-06T01:22:21;96440.13;;;15.13;100.00
10470;BME280;5282;47.052;15.458;2023-08-06T01:24:50;96437.22;;;15.07;100.00
10470;BME280;5282;47.052;15.458;2023-08-06T01:27:22;96441.59;;;15.08;100.00
10470;BME280;5282;47.052;15.458;2023-08-06T01:29:57;96446.41;;;15.06;100.00
10470;BME280;5282;47.052;15.458;2023-08-06T01:32:32;96434.53;;;15.07;100.00
10470;BME280;5282;47.052;15.458;2023-08-06T01:35:02;96434.97;;;15.04;100.00
10470;BME280;5282;47.052;15.458;2023-08-06T01:37:32;96432.03;;;15.06;100.00
10470;BME280;5282;47.052;15.458;2023-08-06T01:39:59;96426.38;;;15.07;100.00
10470;BME280;5282;47.052;15.458;2023-08-06T01:42:26;96435.34;;;15.08;100.00
10470;BME280;5282;47.052;15.458;2023-08-06T01:44:53;96434.97;;;15.04;100.00
10470;BME280;5282;47.052;15.458;2023-08-06T01:47:19;96432.63;;;15.08;100.00
10470;BME280;5282;47.052;15.458;2023-08-06T01:49:46;96437.47;;;15.06;100.00
10470;BME280;5282;47.052;15.458;2023-08-06T01:52:13;96429.72;;;15.09;100.00
10470;BME280;5282;47.052;15.458;2023-08-06T01:54:41;96428.66;;;15.10;100.00
10470;BME280;5282;47.052;15.458;2023-08-06T01:57:08;96424.59;;;15.20;100.00
10470;BME280;5282;47.052;15.458;2023-08-06T01:59:35;96422.56;;;15.15;100.00
10470;BME280;5282;47.052;15.458;2023-08-06T02:02:02;96417.13;;;15.15;100.00
10470;BME280;5282;47.052;15.458;2023-08-06T02:04:29;96419.47;;;15.11;100.00
10470;BME280;5282;47.052;15.458;2023-08-06T02:06:57;96416.53;;;15.13;100.00
10470;BME280;5282;47.052;15.458;2023-08-06T02:09:23;96414.88;;;15.12;100.00
10470;BME280;5282;47.052;15.458;2023-08-06T02:11:52;96410.28;;;15.13;100.00
10470;BME280;5282;47.052;15.458;2023-08-06T02:14:19;96407.34;;;15.14;100.00
10470;BME280;5282;47.052;15.458;2023-08-06T02:16:46;96409.00;;;15.15;100.00
10470;BME280;5282;47.052;15.458;2023-08-06T02:19:12;96412.53;;;15.16;100.00
10470;BME280;5282;47.052;15.458;2023-08-06T02:21:39;96401.69;;;15.16;100.00
10470;BME280;5282;47.052;15.458;2023-08-06T02:24:07;96401.09;;;15.14;100.00
10470;BME280;5282;47.052;15.458;2023-08-06T02:26:33;96400.03;;;15.15;100.00
10470;BME280;5282;47.052;15.458;2023-08-06T02:29:02;96405.44;;;15.15;100.00
10470;BME280;5282;47.052;15.458;2023-08-06T02:31:31;96396.50;;;15.14;100.00
10470;BME280;5282;47.052;15.458;2023-08-06T02:33:58;96401.94;;;15.14;100.00
10470;BME280;5282;47.052;15.458;2023-08-06T02:36:25;96398.97;;;15.16;100.00
10470;BME280;5282;47.052;15.458;2023-08-06T02:38:54;96402.91;;;15.20;100.00
10470;BME280;5282;47.052;15.458;2023-08-06T02:41:21;96390.84;;;15.16;100.00
10470;BME280;5282;47.052;15.458;2023-08-06T02:43:48;96398.38;;;15.14;100.00
10470;BME280;5282;47.052;15.458;2023-08-06T02:46:16;96398.97;;;15.16;100.00
10470;BME280;5282;47.052;15.458;2023-08-06T02:48:43;96405.69;;;15.13;100.00
10470;BME280;5282;47.052;15.458;2023-08-06T02:51:10;96400.50;;;15.11;100.00
10470;BME280;5282;47.052;15.458;2023-08-06T02:53:37;96405.06;;;15.11;100.00
10470;BME280;5282;47.052;15.458;2023-08-06T02:56:04;96407.19;;;15.09;100.00
10470;BME280;5282;47.052;15.458;2023-08-06T02:58:31;96406.38;;;15.08;100.00
10470;BME280;5282;47.052;15.458;2023-08-06T03:01:01;96397.19;;;15.09;100.00
10470;BME280;5282;47.052;15.458;2023-08-06T03:03:31;96404.09;;;15.05;100.00
10470;BME280;5282;47.052;15.458;2023-08-06T03:06:00;96405.50;;;15.08;100.00
10470;BME280;5282;47.052;15.458;2023-08-06T03:08:28;96399.88;;;15.09;100.00
10470;BME280;5282;47.052;15.458;2023-08-06T03:10:57;96407.78;;;15.11;100.00
10470;BME280;5282;47.052;15.458;2023-08-06T03:13:24;96406.28;;;15.34;100.00
10470;BME280;5282;47.052;15.458;2023-08-06T03:15:52;96397.19;;;15.28;100.00
10470;BME280;5282;47.052;15.458;2023-08-06T03:18:19;96396.88;;;15.18;100.00
10470;BME280;5282;47.052;15.458;2023-08-06T03:20:47;96396.94;;;15.11;100.00
10470;BME280;5282;47.052;15.458;2023-08-06T03:23:14;96405.06;;;15.11;100.00
10470;BME280;5282;47.052;15.458;2023-08-06T03:25:41;96402.81;;;15.08;100.00
10470;BME280;5282;47.052;15.458;2023-08-06T03:28:08;96402.00;;;15.07;100.00
10470;BME280;5282;47.052;15.458;2023-08-06T03:30:35;96401.38;;;15.05;100.00
10470;BME280;5282;47.052;15.458;2023-08-06T03:33:02;96399.72;;;15.04;100.00
10470;BME280;5282;47.052;15.458;2023-08-06T03:35:29;96396.56;;;15.07;100.00
10470;BME280;5282;47.052;15.458;2023-08-06T03:37:57;96397.84;;;15.05;100.00
10470;BME280;5282;47.052;15.458;2023-08-06T03:40:24;96404.69;;;15.07;100.00
10470;BME280;5282;47.052;15.458;2023-08-06T03:42:51;96403.28;;;15.05;100.00
10470;BME280;5282;47.052;15.458;2023-08-06T03:45:20;96397.19;;;15.09;100.00
10470;BME280;5282;47.052;15.458;2023-08-06T03:47:47;96389.03;;;15.09;100.00
10470;BME280;5282;47.052;15.458;2023-08-06T03:50:14;96399.88;;;15.09;100.00
10470;BME280;5282;47.052;15.458;2023-08-06T03:52:40;96391.97;;;15.08;100.00
10470;BME280;5282;47.052;15.458;2023-08-06T03:55:09;96387.38;;;15.08;100.00
10470;BME280;5282;47.052;15.458;2023-08-06T03:57:35;96381.72;;;15.10;100.00
10470;BME280;5282;47.052;15.458;2023-08-06T04:00:03;96386.34;;;15.09;100.00
10470;BME280;5282;47.052;15.458;2023-08-06T04:02:32;96380.25;;;15.14;100.00
10470;BME280;5282;47.052;15.458;2023-08-06T04:05:00;96385.66;;;15.14;100.00
10470;BME280;5282;47.052;15.458;2023-08-06T04:07:27;96372.34;;;15.13;100.00
10470;BME280;5282;47.052;15.458;2023-08-06T04:09:55;96385.72;;;15.07;100.00
10470;BME280;5282;47.052;15.458;2023-08-06T04:12:23;96380.53;;;15.24;100.00
10470;BME280;5282;47.052;15.458;2023-08-06T04:14:50;96377.28;;;15.16;100.00
10470;BME280;5282;47.052;15.458;2023-08-06T04:17:18;96379.78;;;15.17;100.00
10470;BME280;5282;47.052;15.458;2023-08-06T04:19:48;96382.44;;;15.42;100.00
10470;BME280;5282;47.052;15.458;2023-08-06T04:22:15;96379.94;;;15.41;100.00
10470;BME280;5282;47.052;15.458;2023-08-06T04:24:44;96374.44;;;15.29;100.00
10470;BME280;5282;47.052;15.458;2023-08-06T04:27:11;96375.25;;;15.48;100.00
10470;BME280;5282;47.052;15.458;2023-08-06T04:29:40;96373.75;;;15.34;100.00
10470;BME280;5282;47.052;15.458;2023-08-06T04:32:09;96365.31;;;15.23;100.00
10470;BME280;5282;47.052;15.458;2023-08-06T04:34:36;96368.41;;;15.46;100.00
10470;BME280;5282;47.052;15.458;2023-08-06T04:37:04;96377.16;;;15.29;100.00
10470;BME280;5282;47.052;15.458;2023-08-06T04:39:31;96366.75;;;15.26;100.00
10470;BME280;5282;47.052;15.458;2023-08-06T04:41:58;96380.91;;;15.28;100.00
10470;BME280;5282;47.052;15.458;2023-08-06T04:44:25;96385.97;;;15.24;100.00
10470;BME280;5282;47.052;15.458;2023-08-06T04:46:53;96392.81;;;15.27;100.00
10470;BME280;5282;47.052;15.458;2023-08-06T04:49:22;96398.19;;;15.52;100.00
10470;BME280;5282;47.052;15.458;2023-08-06T04:51:49;96391.66;;;15.53;100.00
10470;BME280;5282;47.052;15.458;2023-08-06T04:54:16;96402.47;;;15.41;100.00
10470;BME280;5282;47.052;15.458;2023-08-06T04:56:43;96405.41;;;15.58;100.00
10470;BME280;5282;47.052;15.458;2023-08-06T04:59:10;96400.72;;;15.66;100.00
10470;BME280;5282;47.052;15.458;2023-08-06T05:01:36;96410.75;;;15.47;100.00
10470;BME280;5282;47.052;15.458;2023-08-06T05:04:05;96423.66;;;15.51;100.00
10470;BME280;5282;47.052;15.458;2023-08-06T05:06:31;96431.69;;;15.39;100.00
10470;BME280;5282;47.052;15.458;2023-08-06T05:09:03;96432.91;;;15.43;100.00
10470;BME280;5282;47.052;15.458;2023-08-06T05:11:30;96442.59;;;15.33;100.00
10470;BME280;5282;47.052;15.458;2023-08-06T05:13:57;96438.47;;;15.49;100.00
10470;BME280;5282;47.052;15.458;2023-08-06T05:16:24;96431.72;;;15.58;100.00
10470;BME280;5282;47.052;15.458;2023-08-06T05:18:51;96438.25;;;15.50;100.00
10470;BME280;5282;47.052;15.458;2023-08-06T05:21:19;96437.88;;;15.47;100.00
10470;BME280;5282;47.052;15.458;2023-08-06T05:23:48;96440.13;;;15.31;100.00
10470;BME280;5282;47.052;15.458;2023-08-06T05:26:14;96439.28;;;15.31;100.00
10470;BME280;5282;47.052;15.458;2023-08-06T05:28:44;96444.63;;;15.19;100.00
10470;BME280;5282;47.052;15.458;2023-08-06T05:31:10;96449.31;;;15.49;100.00
10470;BME280;5282;47.052;15.458;2023-08-06T05:33:37;96445.91;;;15.35;100.00
10470;BME280;5282;47.052;15.458;2023-08-06T05:36:04;96453.50;;;15.07;100.00
10470;BME280;5282;47.052;15.458;2023-08-06T05:38:35;96445.53;;;15.13;100.00
10470;BME280;5282;47.052;15.458;2023-08-06T05:41:02;96447.50;;;15.24;100.00
10470;BME280;5282;47.052;15.458;2023-08-06T05:43:29;96441.53;;;15.15;100.00
10470;BME280;5282;47.052;15.458;2023-08-06T05:45:56;96446.59;;;15.11;100.00
10470;BME280;5282;47.052;15.458;2023-08-06T05:48:25;96447.50;;;15.24;100.00
10470;BME280;5282;47.052;15.458;2023-08-06T05:50:53;96446.19;;;15.08;100.00
10470;BME280;5282;47.052;15.458;2023-08-06T05:53:20;96453.72;;;15.06;100.00
10470;BME280;5282;47.052;15.458;2023-08-06T05:55:48;96453.78;;;14.99;100.00
10470;BME280;5282;47.052;15.458;2023-08-06T05:58:15;96456.50;;;14.99;100.00
10470;BME280;5282;47.052;15.458;2023-08-06T06:00:42;96464.03;;;15.16;100.00
10470;BME280;5282;47.052;15.458;2023-08-06T06:03:09;96464.94;;;15.09;100.00
10470;BME280;5282;47.052;15.458;2023-08-06T06:05:37;96456.38;;;15.13;100.00
10470;BME280;5282;47.052;15.458;2023-08-06T06:08:04;96455.47;;;15.19;100.00
10470;BME280;5282;47.052;15.458;2023-08-06T06:10:31;96449.66;;;15.15;100.00
10470;BME280;5282;47.052;15.458;2023-08-06T06:12:59;96464.66;;;15.18;100.00
10470;BME280;5282;47.052;15.458;2023-08-06T06:15:26;96464.41;;;15.19;100.00
10470;BME280;5282;47.052;15.458;2023-08-06T06:17:53;96456.47;;;15.43;100.00
10470;BME280;5282;47.052;15.458;2023-08-06T06:20:20;96450.22;;;15.42;100.00
10470;BME280;5282;47.052;15.458;2023-08-06T06:22:47;96448.69;;;15.28;100.00
10470;BME280;5282;47.052;15.458;2023-08-06T06:25:13;96452.84;;;15.31;100.00
10470;BME280;5282;47.052;15.458;2023-08-06T06:27:40;96464.28;;;15.33;100.00
10470;BME280;5282;47.052;15.458;2023-08-06T06:30:10;96459.25;;;15.36;100.00
10470;BME280;5282;47.052;15.458;2023-08-06T06:32:38;96462.63;;;15.32;100.00
10470;BME280;5282;47.052;15.458;2023-08-06T06:35:06;96462.13;;;15.41;100.00
10470;BME280;5282;47.052;15.458;2023-08-06T06:37:33;96466.06;;;15.46;100.00
10470;BME280;5282;47.052;15.458;2023-08-06T06:39:59;96467.63;;;15.35;100.00
10470;BME280;5282;47.052;15.458;2023-08-06T06:42:26;96468.00;;;15.38;100.00
10470;BME280;5282;47.052;15.458;2023-08-06T06:44:55;96463.88;;;15.73;100.00
10470;BME280;5282;47.052;15.458;2023-08-06T06:47:26;96467.03;;;15.70;100.00
10470;BME280;5282;47.052;15.458;2023-08-06T06:49:53;96469.91;;;15.56;100.00
10470;BME280;5282;47.052;15.458;2023-08-06T06:52:19;96464.53;;;15.50;100.00
10470;BME280;5282;47.052;15.458;2023-08-06T06:54:47;96467.47;;;15.67;100.00
10470;BME280;5282;47.052;15.458;2023-08-06T06:57:14;96471.19;;;15.54;100.00
10470;BME280;5282;47.052;15.458;2023-08-06T06:59:40;96468.59;;;15.59;100.00
10470;BME280;5282;47.052;15.458;2023-08-06T07:02:07;96468.81;;;15.76;100.00
10470;BME280;5282;47.052;15.458;2023-08-06T07:04:35;96464.31;;;15.70;100.00
10470;BME280;5282;47.052;15.458;2023-08-06T07:07:03;96468.00;;;15.76;100.00
10470;BME280;5282;47.052;15.458;2023-08-06T07:09:30;96473.44;;;15.76;100.00
10470;BME280;5282;47.052;15.458;2023-08-06T07:11:57;96466.34;;;15.74;100.00
10470;BME280;5282;47.052;15.458;2023-08-06T07:14:25;96459.50;;;15.72;100.00
10470;BME280;5282;47.052;15.458;2023-08-06T07:16:52;96463.88;;;15.73;100.00
10470;BME280;5282;47.052;15.458;2023-08-06T07:19:21;96466.34;;;15.74;100.00
10470;BME280;5282;47.052;15.458;2023-08-06T07:21:50;96460.94;;;15.74;100.00
10470;BME280;5282;47.052;15.458;2023-08-06T07:24:17;96461.97;;;15.73;100.00
10470;BME280;5282;47.052;15.458;2023-08-06T07:26:44;96473.59;;;15.62;100.00
10470;BME280;5282;47.052;15.458;2023-08-06T07:29:11;96465.53;;;15.93;100.00
10470;BME280;5282;47.052;15.458;2023-08-06T07:31:38;96458.75;;;15.83;100.00
10470;BME280;5282;47.052;15.458;2023-08-06T07:34:04;96458.13;;;15.81;100.00
10470;BME280;5282;47.052;15.458;2023-08-06T07:36:31;96455.41;;;15.81;100.00
10470;BME280;5282;47.052;15.458;2023-08-06T07:38:59;96451.91;;;15.81;100.00
10470;BME280;5282;47.052;15.458;2023-08-06T07:41:26;96447.03;;;15.83;100.00
10470;BME280;5282;47.052;15.458;2023-08-06T07:43:53;96446.00;;;15.84;100.00
10470;BME280;5282;47.052;15.458;2023-08-06T07:46:20;96449.34;;;15.86;100.00
10470;BME280;5282;47.052;15.458;2023-08-06T07:48:47;96452.19;;;15.72;100.00
10470;BME280;5282;47.052;15.458;2023-08-06T07:51:14;96441.69;;;15.76;100.00
10470;BME280;5282;47.052;15.458;2023-08-06T07:53:43;96449.63;;;15.78;100.00
10470;BME280;5282;47.052;15.458;2023-08-06T07:56:11;96445.84;;;15.79;100.00
10470;BME280;5282;47.052;15.458;2023-08-06T07:58:38;96441.63;;;15.83;100.00
10470;BME280;5282;47.052;15.458;2023-08-06T08:01:06;96446.78;;;15.91;100.00
10470;BME280;5282;47.052;15.458;2023-08-06T08:03:33;96438.84;;;16.08;100.00
10470;BME280;5282;47.052;15.458;2023-08-06T08:06:00;96437.09;;;15.95;100.00
10470;BME280;5282;47.052;15.458;2023-08-06T08:08:27;96441.19;;;16.04;100.00
10470;BME280;5282;47.052;15.458;2023-08-06T08:10:53;96428.00;;;16.20;100.00
10470;BME280;5282;47.052;15.458;2023-08-06T08:13:22;96436.53;;;16.24;100.00
10470;BME280;5282;47.052;15.458;2023-08-06T08:15:49;96428.75;;;16.27;100.00
10470;BME280;5282;47.052;15.458;2023-08-06T08:18:16;96432.19;;;16.34;100.00
10470;BME280;5282;47.052;15.458;2023-08-06T08:20:43;96434.50;;;16.19;100.00
10470;BME280;5282;47.052;15.458;2023-08-06T08:23:10;96442.28;;;16.15;100.00
10470;BME280;5282;47.052;15.458;2023-08-06T08:25:37;96442.09;;;16.29;100.00
10470;BME280;5282;47.052;15.458;2023-08-06T08:28:04;96434.91;;;16.34;100.00
10470;BME280;5282;47.052;15.458;2023-08-06T08:30:32;96429.25;;;16.36;100.00
10470;BME280;5282;47.052;15.458;2023-08-06T08:32:59;96433.94;;;16.29;100.00
10470;BME280;5282;47.052;15.458;2023-08-06T08:35:26;96438.63;;;16.52;100.00
10470;BME280;5282;47.052;15.458;2023-08-06T08:37:53;96428.59;;;16.53;100.00
10470;BME280;5282;47.052;15.458;2023-08-06T08:40:24;96437.19;;;16.38;100.00
10470;BME280;5282;47.052;15.458;2023-08-06T08:42:56;96440.84;;;16.43;100.00
10470;BME280;5282;47.052;15.458;2023-08-06T08:45:26;96448.22;;;16.55;100.00
10470;BME280;5282;47.052;15.458;2023-08-06T08:47:56;96451.31;;;16.40;100.00
10470;BME280;5282;47.052;15.458;2023-08-06T08:50:23;96459.38;;;16.46;100.00
10470;BME280;5282;47.052;15.458;2023-08-06T08:52:51;96456.72;;;16.58;100.00
10470;BME280;5282;47.052;15.458;2023-08-06T08:55:19;96459.88;;;16.55;100.00
10470;BME280;5282;47.052;15.458;2023-08-06T08:57:48;96463.66;;;16.42;100.00
10470;BME280;5282;47.052;15.458;2023-08-06T09:00:15;96466.84;;;16.51;100.00
10470;BME280;5282;47.052;15.458;2023-08-06T09:02:44;96464.00;;;16.46;100.00
10470;BME280;5282;47.052;15.458;2023-08-06T09:05:13;96461.66;;;16.49;100.00
10470;BME280;5282;47.052;15.458;2023-08-06T09:07:42;96464.63;;;16.60;100.00
10470;BME280;5282;47.052;15.458;2023-08-06T09:10:11;96466.84;;;16.51;100.00
10470;BME280;5282;47.052;15.458;2023-08-06T09:12:39;96460.28;;;16.71;100.00
10470;BME280;5282;47.052;15.458;2023-08-06T09:15:07;96457.69;;;16.64;100.00
10470;BME280;5282;47.052;15.458;2023-08-06T09:17:34;96461.09;;;16.71;100.00
10470;BME280;5282;47.052;15.458;2023-08-06T09:20:09;96454.84;;;16.71;100.00
10470;BME280;5282;47.052;15.458;2023-08-06T09:22:38;96456.41;;;16.78;100.00
10470;BME280;5282;47.052;15.458;2023-08-06T09:25:06;96462.91;;;16.77;100.00
10470;BME280;5282;47.052;15.458;2023-08-06T09:27:36;96474.69;;;16.59;100.00
10470;BME280;5282;47.052;15.458;2023-08-06T09:30:04;96482.69;;;16.54;100.00
10470;BME280;5282;47.052;15.458;2023-08-06T09:32:45;96481.25;;;16.52;100.00
10470;BME280;5282;47.052;15.458;2023-08-06T09:35:16;96483.44;;;16.61;100.00
10470;BME280;5282;47.052;15.458;2023-08-06T09:37:45;96490.03;;;16.54;100.00
10470;BME280;5282;47.052;15.458;2023-08-06T09:40:27;96481.38;;;16.57;100.00
10470;BME280;5282;47.052;15.458;2023-08-06T09:42:55;96490.84;;;16.54;100.00
10470;BME280;5282;47.052;15.458;2023-08-06T09:45:24;96489.69;;;16.74;100.00
10470;BME280;5282;47.052;15.458;2023-08-06T09:47:55;96487.38;;;16.89;100.00
10470;BME280;5282;47.052;15.458;2023-08-06T09:50:22;96485.34;;;16.73;100.00
10470;BME280;5282;47.052;15.458;2023-08-06T09:52:51;96501.00;;;16.59;100.00
10470;BME280;5282;47.052;15.458;2023-08-06T09:55:19;96504.56;;;16.59;100.00
10470;BME280;5282;47.052;15.458;2023-08-06T09:57:47;96506.53;;;16.52;100.00
10470;BME280;5282;47.052;15.458;2023-08-06T10:00:14;96505.72;;;16.52;100.00
10470;BME280;5282;47.052;15.458;2023-08-06T10:02:41;96505.34;;;16.90;100.00
10470;BME280;5282;47.052;15.458;2023-08-06T10:05:08;96497.72;;;16.99;100.00
10470;BME280;5282;47.052;15.458;2023-08-06T10:07:36;96495.47;;;16.96;100.00
10470;BME280;5282;47.052;15.458;2023-08-06T10:10:06;96507.97;;;16.85;100.00
10470;BME280;5282;47.052;15.458;2023-08-06T10:12:37;96512.72;;;17.02;100.00
10470;BME280;5282;47.052;15.458;2023-08-06T10:15:09;96514.19;;;17.28;100.00
10470;BME280;5282;47.052;15.458;2023-08-06T10:17:39;96510.28;;;17.24;100.00
10470;BME280;5282;47.052;15.458;2023-08-06T10:20:10;96508.97;;;17.62;100.00
10470;BME280;5282;47.052;15.458;2023-08-06T10:22:42;96503.63;;;17.79;100.00
10470;BME280;5282;47.052;15.458;2023-08-06T10:25:16;96475.78;;;18.01;100.00
10470;BME280;5282;47.052;15.458;2023-08-06T10:27:53;96473.06;;;18.13;100.00
10470;BME280;5282;47.052;15.458;2023-08-06T10:30:24;96471.59;;;18.22;100.00
10470;BME280;5282;47.052;15.458;2023-08-06T10:32:52;96482.78;;;18.38;100.00
10470;BME280;5282;47.052;15.458;2023-08-06T10:35:35;96477.22;;;18.32;100.00
10470;BME280;5282;47.052;15.458;2023-08-06T10:38:07;96478.19;;;18.55;100.00
10470;BME280;5282;47.052;15.458;2023-08-06T10:40:36;96486.72;;;18.59;100.00
10470;BME280;5282;47.052;15.458;2023-08-06T10:43:03;96461.81;;;18.67;100.00
10470;BME280;5282;47.052;15.458;2023-08-06T10:45:34;96455.63;;;18.89;100.00
10470;BME280;5282;47.052;15.458;2023-08-06T10:48:02;96455.88;;;19.04;100.00
10470;BME280;5282;47.052;15.458;2023-08-06T10:50:30;96457.59;;;18.76;100.00
10470;BME280;5282;47.052;15.458;2023-08-06T10:53:03;96460.31;;;18.76;100.00
10470;BME280;5282;47.052;15.458;2023-08-06T10:55:31;96452.31;;;18.87;100.00
10470;BME280;5282;47.052;15.458;2023-08-06T10:58:01;96450.38;;;18.99;100.00
10470;BME280;5282;47.052;15.458;2023-08-06T11:00:27;96454.00;;;19.22;100.00
10470;BME280;5282;47.052;15.458;2023-08-06T11:02:54;96449.63;;;19.04;100.00
10470;BME280;5282;47.052;15.458;2023-08-06T11:05:21;96452.59;;;19.19;100.00
10470;BME280;5282;47.052;15.458;2023-08-06T11:07:48;96464.16;;;19.26;100.00
10470;BME280;5282;47.052;15.458;2023-08-06T11:10:17;96466.94;;;19.49;100.00
10470;BME280;5282;47.052;15.458;2023-08-06T11:12:44;96452.84;;;19.57;100.00
10470;BME280;5282;47.052;15.458;2023-08-06T11:15:12;96449.19;;;19.68;100.00
10470;BME280;5282;47.052;15.458;2023-08-06T11:17:41;96444.66;;;19.79;100.00
10470;BME280;5282;47.052;15.458;2023-08-06T11:20:09;96447.94;;;19.98;100.00
10470;BME280;5282;47.052;15.458;2023-08-06T11:22:37;96449.09;;;20.02;100.00
10470;BME280;5282;47.052;15.458;2023-08-06T11:25:05;96446.56;;;20.18;100.00
10470;BME280;5282;47.052;15.458;2023-08-06T11:27:33;96446.09;;;20.26;100.00
10470;BME280;5282;47.052;15.458;2023-08-06T11:30:00;96448.06;;;20.31;100.00
10470;BME280;5282;47.052;15.458;2023-08-06T11:32:28;96452.53;;;20.70;100.00
10470;BME280;5282;47.052;15.458;2023-08-06T11:34:55;96447.63;;;20.99;100.00
10470;BME280;5282;47.052;15.458;2023-08-06T11:37:22;96424.16;;;21.03;100.00
10470;BME280;5282;47.052;15.458;2023-08-06T11:39:51;96429.22;;;20.89;100.00
10470;BME280;5282;47.052;15.458;2023-08-06T11:42:18;96426.34;;;20.74;100.00
10470;BME280;5282;47.052;15.458;2023-08-06T11:44:45;96415.44;;;21.11;100.00
10470;BME280;5282;47.052;15.458;2023-08-06T11:47:14;96420.69;;;21.18;100.00
10470;BME280;5282;47.052;15.458;2023-08-06T11:49:46;96423.16;;;21.20;100.00
10470;BME280;5282;47.052;15.458;2023-08-06T11:52:15;96422.78;;;21.06;100.00
10470;BME280;5282;47.052;15.458;2023-08-06T11:54:45;96421.38;;;21.41;100.00
10470;BME280;5282;47.052;15.458;2023-08-06T11:57:12;96420.66;;;21.13;100.00
10470;BME280;5282;47.052;15.458;2023-08-06T11:59:39;96419.91;;;21.23;100.00
10470;BME280;5282;47.052;15.458;2023-08-06T12:02:10;96427.00;;;21.62;100.00
10470;BME280;5282;47.052;15.458;2023-08-06T12:05:00;96417.75;;;21.68;100.00
10470;BME280;5282;47.052;15.458;2023-08-06T12:07:37;96418.81;;;21.24;100.00
10470;BME280;5282;47.052;15.458;2023-08-06T12:10:04;96422.81;;;21.49;100.00
10470;BME280;5282;47.052;15.458;2023-08-06T12:12:34;96410.88;;;21.22;100.00
10470;BME280;5282;47.052;15.458;2023-08-06T12:15:01;96420.63;;;21.08;100.00
10470;BME280;5282;47.052;15.458;2023-08-06T12:17:28;96418.72;;;20.76;100.00
10470;BME280;5282;47.052;15.458;2023-08-06T12:19:55;96418.13;;;20.74;100.00
10470;BME280;5282;47.052;15.458;2023-08-06T12:22:26;96416.41;;;20.68;100.00
10470;BME280;5282;47.052;15.458;2023-08-06T12:24:53;96411.13;;;20.83;100.00
10470;BME280;5282;47.052;15.458;2023-08-06T12:27:20;96420.84;;;21.01;100.00
10470;BME280;5282;47.052;15.458;2023-08-06T12:29:48;96420.41;;;20.82;100.00
10470;BME280;5282;47.052;15.458;2023-08-06T12:32:15;96430.19;;;20.45;100.00
10470;BME280;5282;47.052;15.458;2023-08-06T12:34:43;96433.88;;;20.61;100.00
10470;BME280;5282;47.052;15.458;2023-08-06T12:37:10;96430.94;;;21.01;100.00
10470;BME280;5282;47.052;15.458;2023-08-06T12:39:38;96426.66;;;20.77;100.00
10470;BME280;5282;47.052;15.458;2023-08-06T12:42:06;96428.50;;;20.72;100.00
10470;BME280;5282;47.052;15.458;2023-08-06T12:44:33;96432.59;;;21.02;100.00
10470;BME280;5282;47.052;15.458;2023-08-06T12:46:59;96435.22;;;20.59;100.00
10470;BME280;5282;47.052;15.458;2023-08-06T12:49:26;96446.31;;;20.47;100.00
10470;BME280;5282;47.052;15.458;2023-08-06T12:51:54;96445.53;;;20.52;100.00
10470;BME280;5282;47.052;15.458;2023-08-06T12:54:22;96443.63;;;20.52;100.00